createdAt,value
2022-12-14T00:00:18.991Z,1.23
2022-12-14T00:02:50.564Z,1.17
2022-12-14T00:05:22.050Z,1.18
2022-12-14T00:07:53.494Z,1.18
2022-12-14T00:10:24.931Z,1.19
2022-12-14T00:12:57.836Z,1.18
2022-12-14T00:15:29.541Z,1.17
2022-12-14T00:18:01.042Z,1.17
2022-12-14T00:20:33.836Z,1.16
2022-12-14T00:23:05.261Z,1.10
2022-12-14T00:25:36.734Z,1.13
2022-12-14T00:28:08.136Z,1.12
2022-12-14T00:30:39.537Z,1.13
2022-12-14T00:33:10.934Z,1.07
2022-12-14T00:35:42.391Z,1.03
2022-12-14T00:38:13.765Z,1.00
2022-12-14T00:40:45.223Z,1.06
2022-12-14T00:43:16.735Z,1.01
2022-12-14T00:45:48.148Z,1.06
2022-12-14T00:48:20.997Z,1.09
2022-12-14T00:50:54.336Z,1.12
2022-12-14T00:53:25.989Z,1.13
2022-12-14T00:55:57.545Z,1.12
2022-12-14T00:58:29.410Z,1.10
2022-12-14T01:01:07.024Z,1.08
2022-12-14T01:03:38.555Z,1.02
2022-12-14T01:06:22.772Z,0.94
2022-12-14T01:08:54.226Z,0.89
2022-12-14T01:11:25.629Z,0.94
2022-12-14T01:13:57.070Z,0.87
2022-12-14T01:16:28.542Z,0.88
2022-12-14T01:19:00.666Z,0.77
2022-12-14T01:21:32.527Z,0.79
2022-12-14T01:24:05.829Z,0.77
2022-12-14T01:26:39.045Z,0.83
2022-12-14T01:29:11.497Z,0.77
2022-12-14T01:31:43.242Z,0.78
2022-12-14T01:34:14.713Z,0.82
2022-12-14T01:36:46.348Z,0.83
2022-12-14T01:39:17.775Z,0.88
2022-12-14T01:41:50.774Z,0.89
2022-12-14T01:44:22.127Z,0.89
2022-12-14T01:46:58.375Z,0.83
2022-12-14T01:49:47.351Z,0.85
2022-12-14T01:52:27.892Z,0.82
2022-12-14T01:55:04.348Z,0.78
2022-12-14T01:57:59.968Z,0.75
2022-12-14T02:00:31.630Z,0.81
2022-12-14T02:03:37.427Z,0.75
2022-12-14T02:06:14.310Z,0.71
2022-12-14T02:08:48.260Z,0.66
2022-12-14T02:11:35.843Z,0.65
2022-12-14T02:14:07.237Z,0.62
2022-12-14T02:16:39.947Z,0.55
2022-12-14T02:19:11.385Z,0.42
2022-12-14T02:21:42.809Z,0.45
2022-12-14T02:24:30.881Z,0.45
2022-12-14T02:27:12.565Z,0.42
2022-12-14T02:30:04.940Z,0.38
2022-12-14T02:32:57.560Z,0.42
2022-12-14T02:36:10.532Z,0.43
2022-12-14T02:39:13.858Z,0.41
2022-12-14T02:41:57.345Z,0.40
2022-12-14T02:44:31.424Z,0.41
2022-12-14T02:47:23.589Z,0.42
2022-12-14T02:50:13.828Z,0.40
2022-12-14T02:53:04.128Z,0.32
2022-12-14T02:55:42.181Z,0.27
2022-12-14T02:58:23.684Z,0.22
2022-12-14T03:00:56.436Z,0.19
2022-12-14T03:03:28.309Z,0.18
2022-12-14T03:06:04.157Z,0.19
2022-12-14T03:08:36.335Z,0.19
2022-12-14T03:11:23.997Z,0.15
2022-12-14T03:14:04.646Z,0.16
2022-12-14T03:16:44.692Z,0.15
2022-12-14T03:19:29.900Z,0.16
2022-12-14T03:22:11.038Z,0.16
2022-12-14T03:24:50.984Z,0.12
2022-12-14T03:27:34.564Z,0.10
2022-12-14T03:30:10.641Z,0.11
2022-12-14T03:32:52.555Z,0.10
2022-12-14T03:35:29.122Z,0.11
2022-12-14T03:38:13.596Z,0.08
2022-12-14T03:41:11.377Z,0.08
2022-12-14T03:44:11.279Z,0.05
2022-12-14T03:47:06.153Z,-0.01
2022-12-14T03:49:56.514Z,-0.03
2022-12-14T03:52:40.067Z,-0.13
2022-12-14T03:55:26.814Z,-0.10
2022-12-14T03:58:16.988Z,-0.15
2022-12-14T04:01:03.432Z,-0.23
2022-12-14T04:03:48.565Z,-0.20
2022-12-14T04:06:46.413Z,-0.25
2022-12-14T04:09:38.555Z,-0.33
2022-12-14T04:12:18.880Z,-0.36
2022-12-14T04:15:20.282Z,-0.32
2022-12-14T04:17:59.880Z,-0.36
2022-12-14T04:20:59.477Z,-0.31
2022-12-14T04:23:51.873Z,-0.28
2022-12-14T04:26:28.848Z,-0.28
2022-12-14T04:29:05.577Z,-0.23
2022-12-14T04:31:41.250Z,-0.33
2022-12-14T04:34:16.009Z,-0.26
2022-12-14T04:36:58.247Z,-0.25
2022-12-14T04:39:53.801Z,-0.26
2022-12-14T04:42:33.781Z,-0.26
2022-12-14T04:45:12.518Z,-0.24
2022-12-14T04:47:59.428Z,-0.25
2022-12-14T04:50:44.302Z,-0.30
2022-12-14T04:53:40.121Z,-0.32
2022-12-14T04:56:53.910Z,-0.36
2022-12-14T04:59:26.176Z,-0.49
2022-12-14T05:02:10.550Z,-0.54
2022-12-14T05:05:35.233Z,-0.56
2022-12-14T05:08:22.070Z,-0.56
2022-12-14T05:11:48.004Z,-0.63
2022-12-14T05:16:53.147Z,-0.58
2022-12-14T05:19:27.527Z,-0.61
2022-12-14T05:22:12.454Z,-0.65
2022-12-14T05:27:36.494Z,-0.66
2022-12-14T05:30:11.866Z,-0.65
2022-12-14T05:32:44.768Z,-0.69
2022-12-14T05:35:17.121Z,-0.79
2022-12-14T05:37:51.329Z,-0.85
2022-12-14T05:40:27.664Z,-0.83
2022-12-14T05:43:07.529Z,-0.82
2022-12-14T05:45:39.071Z,-0.87
2022-12-14T05:48:19.344Z,-0.85
2022-12-14T05:50:53.272Z,-0.88
2022-12-14T05:53:25.562Z,-0.89
2022-12-14T05:55:59.045Z,-0.84
2022-12-14T05:58:30.490Z,-0.81
2022-12-14T06:01:04.478Z,-0.80
2022-12-14T06:03:35.992Z,-0.77
2022-12-14T06:06:10.135Z,-0.78
2022-12-14T06:08:44.633Z,-0.83
2022-12-14T06:11:21.797Z,-0.88
2022-12-14T06:13:53.269Z,-0.88
2022-12-14T06:16:25.701Z,-0.92
2022-12-14T06:19:00.093Z,-0.93
2022-12-14T06:21:34.459Z,-1.00
2022-12-14T06:24:06.662Z,-1.05
2022-12-14T06:26:38.954Z,-1.09
2022-12-14T06:29:16.667Z,-1.15
2022-12-14T06:31:49.004Z,-1.13
2022-12-14T06:34:26.349Z,-1.22
2022-12-14T06:36:59.817Z,-1.24
2022-12-14T06:39:31.350Z,-1.37
2022-12-14T06:42:02.901Z,-1.35
2022-12-14T06:44:34.698Z,-1.32
2022-12-14T06:47:06.111Z,-1.29
2022-12-14T06:49:37.551Z,-1.27
2022-12-14T06:52:10.293Z,-1.22
2022-12-14T06:54:41.731Z,-1.18
2022-12-14T06:57:13.163Z,-1.18
2022-12-14T06:59:44.592Z,-1.21
2022-12-14T07:02:16.215Z,-1.22
2022-12-14T07:04:47.814Z,-1.24
2022-12-14T07:07:19.224Z,-1.24
2022-12-14T07:09:50.694Z,-1.27
2022-12-14T07:12:22.089Z,-1.27
2022-12-14T07:14:54.393Z,-1.26
2022-12-14T07:17:25.853Z,-1.24
2022-12-14T07:19:57.265Z,-1.24
2022-12-14T07:22:28.693Z,-1.27
2022-12-14T07:25:00.143Z,-1.28
2022-12-14T07:27:31.566Z,-1.27
2022-12-14T07:30:03.171Z,-1.33
2022-12-14T07:32:34.620Z,-1.31
2022-12-14T07:35:07.851Z,-1.35
2022-12-14T07:37:41.828Z,-1.41
2022-12-14T07:40:13.331Z,-1.40
2022-12-14T07:42:48.548Z,-1.37
2022-12-14T07:45:19.920Z,-1.36
2022-12-14T07:47:51.349Z,-1.37
2022-12-14T07:50:22.906Z,-1.37
2022-12-14T07:52:54.306Z,-1.38
2022-12-14T07:55:25.753Z,-1.40
2022-12-14T07:57:57.138Z,-1.42
2022-12-14T08:00:28.588Z,-1.47
2022-12-14T08:03:00.004Z,-1.48
2022-12-14T08:05:31.432Z,-1.51
2022-12-14T08:08:02.897Z,-1.55
2022-12-14T08:10:40.025Z,-1.60
2022-12-14T08:13:11.876Z,-1.61
2022-12-14T08:15:43.325Z,-1.61
2022-12-14T08:18:14.731Z,-1.64
2022-12-14T08:20:53.382Z,-1.63
2022-12-14T08:23:25.008Z,-1.63
2022-12-14T08:25:58.116Z,-1.58
2022-12-14T08:28:30.998Z,-1.59
2022-12-14T08:31:07.793Z,-1.60
2022-12-14T08:33:40.074Z,-1.57
2022-12-14T08:36:19.202Z,-1.54
2022-12-14T08:38:57.946Z,-1.50
2022-12-14T08:41:29.882Z,-1.48
2022-12-14T08:44:03.001Z,-1.46
2022-12-14T08:46:35.513Z,-1.43
2022-12-14T08:49:07.051Z,-1.43
2022-12-14T08:51:38.488Z,-1.48
2022-12-14T08:54:10.089Z,-1.47
2022-12-14T08:56:41.539Z,-1.40
2022-12-14T08:59:30.255Z,-1.33
2022-12-14T09:02:04.832Z,-1.28
2022-12-14T09:04:36.426Z,-1.22
2022-12-14T09:07:07.819Z,-1.15
2022-12-14T09:09:39.269Z,-1.09
2022-12-14T09:12:10.698Z,-1.06
2022-12-14T09:14:42.174Z,-1.02
2022-12-14T09:17:13.601Z,-0.96
2022-12-14T09:19:45.232Z,-0.89
2022-12-14T09:22:16.642Z,-0.85
2022-12-14T09:27:19.589Z,-0.76
2022-12-14T09:29:51.132Z,-0.73
2022-12-14T09:32:22.587Z,-0.69
2022-12-14T09:34:54.005Z,-0.71
2022-12-14T09:37:25.618Z,-0.71
2022-12-14T09:39:57.007Z,-0.55
2022-12-14T09:42:37.260Z,-0.38
2022-12-14T09:45:29.765Z,-0.25
2022-12-14T09:48:18.495Z,-0.07
2022-12-14T09:50:52.679Z,0.10
2022-12-14T09:53:25.471Z,0.25
2022-12-14T09:55:58.450Z,0.25
2022-12-14T09:58:31.830Z,0.48
2022-12-14T10:01:03.599Z,0.69
2022-12-14T10:04:08.971Z,0.83
2022-12-14T10:06:58.596Z,1.10
2022-12-14T10:09:35.933Z,1.38
2022-12-14T10:12:34.342Z,1.48
2022-12-14T10:15:12.360Z,1.70
2022-12-14T10:17:59.070Z,1.34
2022-12-14T10:20:46.440Z,1.80
2022-12-14T10:23:23.163Z,1.89
2022-12-14T10:26:00.637Z,2.11
2022-12-14T10:28:45.077Z,2.37
2022-12-14T10:31:32.967Z,2.48
2022-12-14T10:34:31.894Z,2.60
2022-12-14T10:37:18.776Z,2.77
2022-12-14T10:40:10.823Z,2.77
2022-12-14T10:42:55.618Z,2.80
2022-12-14T10:46:00.023Z,2.92
2022-12-14T10:48:48.149Z,2.62
2022-12-14T10:51:40.422Z,2.60
2022-12-14T10:54:25.306Z,2.69
2022-12-14T10:56:56.841Z,2.62
2022-12-14T10:59:36.675Z,2.72
2022-12-14T11:02:15.198Z,2.62
2022-12-14T11:05:00.594Z,2.58
2022-12-14T11:07:31.934Z,2.60
2022-12-14T11:10:17.420Z,2.47
2022-12-14T11:13:05.847Z,2.57
2022-12-14T11:15:39.751Z,2.59
2022-12-14T11:18:17.359Z,2.53
2022-12-14T11:20:51.909Z,2.44
2022-12-14T11:23:29.458Z,2.51
2022-12-14T11:26:03.733Z,2.41
2022-12-14T11:28:50.686Z,2.46
2022-12-14T11:31:36.677Z,2.45
2022-12-14T11:34:22.347Z,2.46
2022-12-14T11:36:54.072Z,2.47
2022-12-14T11:39:25.924Z,2.33
2022-12-14T11:41:57.273Z,2.40
2022-12-14T11:44:36.483Z,2.45
2022-12-14T11:47:25.334Z,2.47
2022-12-14T11:49:57.156Z,2.51
2022-12-14T11:52:37.807Z,2.49
2022-12-14T11:55:15.215Z,2.54
2022-12-14T11:57:52.464Z,2.49
2022-12-14T12:00:27.284Z,2.39
2022-12-14T12:03:05.377Z,2.53
2022-12-14T12:05:41.598Z,2.37
2022-12-14T12:08:27.121Z,2.49
2022-12-14T12:11:02.377Z,2.59
2022-12-14T12:13:42.045Z,2.64
2022-12-14T12:16:16.944Z,2.70
2022-12-14T12:18:54.228Z,2.45
2022-12-14T12:21:35.827Z,2.52
2022-12-14T12:24:20.136Z,2.46
2022-12-14T12:27:07.774Z,2.32
2022-12-14T12:29:54.167Z,2.52
2022-12-14T12:32:42.641Z,2.54
2022-12-14T12:35:16.529Z,2.52
2022-12-14T12:37:57.038Z,2.66
2022-12-14T12:41:00.722Z,2.73
2022-12-14T12:43:39.072Z,2.76
2022-12-14T12:46:13.247Z,2.64
2022-12-14T12:48:53.546Z,2.73
2022-12-14T12:51:44.116Z,2.80
2022-12-14T12:54:53.509Z,2.87
2022-12-14T12:57:30.997Z,2.92
2022-12-14T13:00:02.673Z,2.95
2022-12-14T13:02:39.063Z,2.98
2022-12-14T13:05:44.638Z,2.94
2022-12-14T13:08:14.052Z,3.03
2022-12-14T13:11:17.217Z,3.07
2022-12-14T13:13:45.381Z,3.11
2022-12-14T13:16:26.287Z,3.21
2022-12-14T13:19:40.987Z,3.32
2022-12-14T13:22:06.348Z,3.44
2022-12-14T13:24:38.856Z,3.56
2022-12-14T13:27:31.691Z,3.67
2022-12-14T13:30:38.567Z,3.82
2022-12-14T13:33:15.868Z,3.97
2022-12-14T13:35:56.421Z,4.05
2022-12-14T13:39:05.669Z,4.26
2022-12-14T13:41:42.976Z,4.34
2022-12-14T13:44:44.765Z,4.47
2022-12-14T13:47:20.792Z,4.71
2022-12-14T13:50:26.848Z,4.89
2022-12-14T13:52:48.980Z,5.06
2022-12-14T13:55:29.794Z,5.23
2022-12-14T13:58:22.269Z,5.32
2022-12-14T14:00:59.824Z,5.49
2022-12-14T14:03:34.097Z,5.62
2022-12-14T14:06:15.051Z,5.73
2022-12-14T14:08:49.555Z,5.79
2022-12-14T14:11:43.604Z,5.82
2022-12-14T14:14:26.098Z,5.74
2022-12-14T14:17:03.413Z,5.70
2022-12-14T14:19:41.479Z,5.63
2022-12-14T14:22:23.678Z,5.53
2022-12-14T14:25:09.319Z,5.43
2022-12-14T14:27:50.311Z,5.33
2022-12-14T14:30:28.584Z,5.18
2022-12-14T14:33:35.898Z,5.06
2022-12-14T14:35:52.141Z,4.95
2022-12-14T14:38:46.312Z,4.83
2022-12-14T14:41:30.121Z,4.75
2022-12-14T14:44:07.689Z,4.61
2022-12-14T14:46:46.247Z,4.51
2022-12-14T14:49:40.346Z,4.39
2022-12-14T14:52:44.978Z,4.27
2022-12-14T14:58:33.511Z,4.02
2022-12-14T15:01:26.158Z,3.88
2022-12-14T15:04:23.900Z,3.73
2022-12-14T15:07:02.248Z,3.62
2022-12-14T15:09:39.236Z,3.53
2022-12-14T15:12:30.772Z,3.44
2022-12-14T15:15:06.417Z,3.37
2022-12-14T15:17:37.850Z,3.28
2022-12-14T15:20:40.013Z,3.17
2022-12-14T15:23:14.388Z,3.08
2022-12-14T15:25:45.879Z,3.00
2022-12-14T15:28:22.749Z,2.93
2022-12-14T15:30:57.461Z,2.87
2022-12-14T15:33:33.245Z,2.81
2022-12-14T15:36:14.630Z,2.73
2022-12-14T15:38:54.803Z,2.66
2022-12-14T15:41:29.067Z,2.59
2022-12-14T15:44:00.675Z,2.52
2022-12-14T15:46:35.495Z,2.44
2022-12-14T15:49:07.901Z,2.34
2022-12-14T15:51:42.145Z,2.25
2022-12-14T15:54:21.181Z,2.17
2022-12-14T15:56:58.633Z,2.12
2022-12-14T15:59:34.861Z,2.06
2022-12-14T16:02:30.317Z,2.00
2022-12-14T16:05:03.654Z,1.90
2022-12-14T16:07:39.285Z,1.86
2022-12-14T16:10:26.503Z,1.78
2022-12-14T16:13:06.932Z,1.77
2022-12-14T16:15:38.449Z,1.72
2022-12-14T16:18:14.141Z,1.69
2022-12-14T16:20:54.574Z,1.62
2022-12-14T16:23:33.378Z,1.57
2022-12-14T16:26:14.206Z,1.52
2022-12-14T16:28:45.616Z,1.55
2022-12-14T16:31:22.537Z,1.55
2022-12-14T16:34:16.372Z,1.55
2022-12-14T16:37:08.012Z,1.49
2022-12-14T16:39:45.727Z,1.46
2022-12-14T16:42:31.167Z,1.42
2022-12-14T16:45:02.657Z,1.43
2022-12-14T16:47:34.057Z,1.41
2022-12-14T16:50:47.661Z,1.42
2022-12-14T16:53:17.594Z,1.41
2022-12-14T16:56:01.476Z,1.39
2022-12-14T16:58:34.940Z,1.34
2022-12-14T17:01:09.150Z,1.31
2022-12-14T17:03:40.757Z,1.28
2022-12-14T17:06:22.750Z,1.27
2022-12-14T17:08:54.138Z,1.23
2022-12-14T17:11:25.593Z,1.19
2022-12-14T17:13:57.145Z,1.10
2022-12-14T17:16:28.656Z,1.06
2022-12-14T17:19:00.190Z,1.05
2022-12-14T17:21:31.758Z,1.05
2022-12-14T17:24:03.308Z,1.02
2022-12-14T17:26:34.718Z,0.98
2022-12-14T17:29:11.812Z,0.92
2022-12-14T17:31:49.819Z,0.87
2022-12-14T17:34:23.635Z,0.87
2022-12-14T17:36:55.235Z,0.92
2022-12-14T17:39:26.664Z,0.90
2022-12-14T17:41:58.109Z,0.88
2022-12-14T17:44:29.713Z,0.90
2022-12-14T17:47:01.166Z,0.94
2022-12-14T17:49:32.656Z,0.94
2022-12-14T17:52:06.437Z,0.98
2022-12-14T17:54:37.840Z,1.01
2022-12-14T17:57:22.892Z,1.01
2022-12-14T17:59:54.306Z,0.97
2022-12-14T18:02:31.087Z,0.97
2022-12-14T18:05:02.927Z,0.95
2022-12-14T18:07:34.344Z,0.95
2022-12-14T18:10:06.120Z,0.93
2022-12-14T18:12:37.560Z,0.92
2022-12-14T18:15:29.474Z,0.95
2022-12-14T18:18:00.932Z,0.98
2022-12-14T18:20:32.421Z,1.02
2022-12-14T18:23:03.830Z,1.01
2022-12-14T18:25:43.284Z,1.02
2022-12-14T18:28:20.030Z,1.03
2022-12-14T18:30:56.432Z,1.04
2022-12-14T18:33:28.622Z,1.12
2022-12-14T18:36:00.965Z,1.16
2022-12-14T18:38:32.403Z,1.16
2022-12-14T18:41:04.964Z,1.20
2022-12-14T18:43:40.303Z,1.26
2022-12-14T18:46:15.385Z,1.28
2022-12-14T18:48:47.006Z,1.23
2022-12-14T18:51:21.811Z,1.26
2022-12-14T18:53:58.178Z,1.29
2022-12-14T18:56:29.617Z,1.30
2022-12-14T18:59:01.080Z,1.27
2022-12-14T19:01:32.604Z,1.24
2022-12-14T19:04:04.415Z,1.22
2022-12-14T19:06:44.861Z,1.19
2022-12-14T19:09:16.835Z,1.17
2022-12-14T19:11:48.386Z,1.17
2022-12-14T19:14:21.244Z,1.19
2022-12-14T19:16:53.678Z,1.16
2022-12-14T19:19:31.197Z,1.13
2022-12-14T19:22:09.008Z,1.15
2022-12-14T19:24:40.533Z,1.09
2022-12-14T19:27:12.127Z,1.13
2022-12-14T19:29:43.668Z,1.16
2022-12-14T19:32:15.109Z,1.16
2022-12-14T19:34:47.634Z,1.15
2022-12-14T19:37:20.417Z,1.17
2022-12-14T19:39:53.404Z,1.19
2022-12-14T19:42:25.205Z,1.19
2022-12-14T19:44:56.631Z,1.21
2022-12-14T19:47:28.082Z,1.20
2022-12-14T19:49:59.477Z,1.20
2022-12-14T19:52:30.932Z,1.17
2022-12-14T19:55:02.541Z,1.21
2022-12-14T19:57:33.957Z,1.22
2022-12-14T20:00:08.413Z,1.16
2022-12-14T20:02:40.059Z,1.14
2022-12-14T20:05:11.675Z,1.16
2022-12-14T20:07:44.009Z,1.15
2022-12-14T20:10:15.612Z,1.03
2022-12-14T20:12:47.022Z,1.09
2022-12-14T20:15:18.456Z,1.16
2022-12-14T20:17:49.880Z,1.20
2022-12-14T20:20:23.017Z,1.25
2022-12-14T20:22:54.663Z,1.30
2022-12-14T20:25:26.053Z,1.25
2022-12-14T20:27:57.464Z,1.25
2022-12-14T20:30:29.216Z,1.16
2022-12-14T20:33:00.788Z,1.08
2022-12-14T20:35:33.437Z,0.93
2022-12-14T20:38:04.913Z,1.05
2022-12-14T20:40:38.920Z,1.14
2022-12-14T20:43:11.004Z,1.42
2022-12-14T20:45:43.394Z,1.65
2022-12-14T20:48:14.829Z,1.85
2022-12-14T20:50:50.400Z,2.05
2022-12-14T20:53:22.581Z,2.16
2022-12-14T20:55:54.060Z,2.03
2022-12-14T20:58:25.500Z,2.44
2022-12-14T21:00:56.967Z,2.62
2022-12-14T21:03:29.020Z,2.77
2022-12-14T21:06:00.933Z,2.84
2022-12-14T21:08:32.392Z,3.01
2022-12-14T21:11:03.891Z,3.13
2022-12-14T21:13:35.318Z,3.22
2022-12-14T21:16:09.622Z,3.21
2022-12-14T21:18:41.115Z,3.30
2022-12-14T21:21:12.575Z,3.37
2022-12-14T21:23:44.013Z,3.41
2022-12-14T21:26:15.498Z,3.40
2022-12-14T21:28:46.884Z,3.38
2022-12-14T21:31:18.353Z,3.37
2022-12-14T21:33:50.175Z,3.35
2022-12-14T21:36:21.840Z,3.28
2022-12-14T21:38:54.384Z,3.24
2022-12-14T21:41:25.780Z,3.13
2022-12-14T21:43:59.593Z,3.04
2022-12-14T21:46:31.226Z,2.99
2022-12-14T21:49:03.240Z,2.99
2022-12-14T21:51:34.666Z,2.98
2022-12-14T21:54:06.444Z,2.94
2022-12-14T21:56:38.881Z,2.84
2022-12-14T21:59:10.501Z,2.79
2022-12-14T22:01:42.447Z,2.74
2022-12-14T22:04:14.199Z,2.68
2022-12-14T22:06:45.702Z,2.62
2022-12-14T22:09:18.492Z,2.53
2022-12-14T22:11:50.144Z,2.47
2022-12-14T22:14:24.597Z,2.33
2022-12-14T22:16:56.013Z,2.43
2022-12-14T22:19:27.722Z,2.54
2022-12-14T22:21:59.317Z,2.65
2022-12-14T22:24:30.795Z,2.78
2022-12-14T22:27:02.247Z,2.85
2022-12-14T22:29:33.675Z,2.95
2022-12-14T22:32:05.660Z,3.02
2022-12-14T22:34:37.140Z,3.08
2022-12-14T22:37:08.616Z,3.12
2022-12-14T22:39:40.035Z,3.17
2022-12-14T22:42:11.445Z,3.17
2022-12-14T22:44:42.923Z,3.10
2022-12-14T22:47:14.472Z,3.14
2022-12-14T22:49:45.894Z,3.10
2022-12-14T22:52:22.869Z,3.07
2022-12-14T22:54:56.051Z,3.04
2022-12-14T22:57:28.112Z,3.04
2022-12-14T23:00:04.907Z,2.93
2022-12-14T23:02:36.533Z,2.83
2022-12-14T23:05:08.792Z,2.82
2022-12-14T23:07:40.192Z,2.82
2022-12-14T23:10:12.049Z,2.81
2022-12-14T23:12:43.484Z,2.80
2022-12-14T23:15:15.034Z,2.75
2022-12-14T23:17:46.470Z,2.73
2022-12-14T23:20:17.945Z,2.66
2022-12-14T23:22:49.710Z,2.61
2022-12-14T23:25:21.743Z,2.59
2022-12-14T23:27:53.197Z,2.53
2022-12-14T23:30:24.638Z,2.54
2022-12-14T23:32:57.306Z,2.56
2022-12-14T23:35:28.749Z,2.54
2022-12-14T23:38:07.378Z,2.51
2022-12-14T23:40:39.060Z,2.48
2022-12-14T23:43:16.327Z,2.43
2022-12-14T23:45:47.799Z,2.39
2022-12-14T23:48:19.308Z,2.38
2022-12-14T23:50:50.795Z,2.37
2022-12-14T23:53:22.198Z,2.33
2022-12-14T23:55:54.176Z,2.25
2022-12-14T23:58:25.590Z,2.27
